createdAt,value
2018-08-28T00:00:08.056Z,16.08
2018-08-28T00:01:08.123Z,16.08
2018-08-28T00:02:08.113Z,16.12
2018-08-28T00:03:08.023Z,16.05
2018-08-28T00:04:08.079Z,16.02
2018-08-28T00:05:08.047Z,16.09
2018-08-28T00:06:08.014Z,16.00
2018-08-28T00:07:08.022Z,16.00
2018-08-28T00:08:07.984Z,16.08
2018-08-28T00:09:07.954Z,16.08
2018-08-28T00:10:07.944Z,16.08
2018-08-28T00:11:07.930Z,16.10
2018-08-28T00:12:07.924Z,16.04
2018-08-28T00:13:07.982Z,16.02
2018-08-28T00:14:07.915Z,16.10
2018-08-28T00:15:07.887Z,16.00
2018-08-28T00:16:07.908Z,16.01
2018-08-28T00:17:07.979Z,15.98
2018-08-28T00:18:07.867Z,16.05
2018-08-28T00:19:07.876Z,15.94
2018-08-28T00:20:07.878Z,16.04
2018-08-28T00:21:07.822Z,15.97
2018-08-28T00:22:07.870Z,16.09
2018-08-28T00:23:07.902Z,16.02
2018-08-28T00:24:07.788Z,16.00
2018-08-28T00:25:07.886Z,16.01
2018-08-28T00:26:07.818Z,16.08
2018-08-28T00:27:07.753Z,16.01
2018-08-28T00:28:07.740Z,16.00
2018-08-28T00:29:07.731Z,15.97
2018-08-28T00:30:07.735Z,16.04
2018-08-28T00:31:07.720Z,16.04
2018-08-28T00:32:07.707Z,16.00
2018-08-28T00:33:07.689Z,16.01
2018-08-28T00:34:07.710Z,16.02
2018-08-28T00:35:07.662Z,15.98
2018-08-28T00:36:07.672Z,16.01
2018-08-28T00:37:07.673Z,16.02
2018-08-28T00:38:07.717Z,16.00
2018-08-28T00:39:07.615Z,15.97
2018-08-28T00:40:07.605Z,16.01
2018-08-28T00:41:07.593Z,15.97
2018-08-28T00:42:07.597Z,16.00
2018-08-28T00:43:07.634Z,15.92
2018-08-28T00:44:07.619Z,16.01
2018-08-28T00:45:07.547Z,15.97
2018-08-28T00:46:07.538Z,15.95
2018-08-28T00:47:07.673Z,15.95
2018-08-28T00:48:07.537Z,15.97
2018-08-28T00:49:07.563Z,16.00
2018-08-28T00:50:07.505Z,15.97
2018-08-28T00:51:15.565Z,16.02
2018-08-28T00:52:07.473Z,16.01
2018-08-28T00:53:07.737Z,15.97
2018-08-28T00:54:07.454Z,15.95
2018-08-28T00:55:07.498Z,15.94
2018-08-28T00:56:07.426Z,16.02
2018-08-28T00:57:07.422Z,15.91
2018-08-28T00:58:07.402Z,15.98
2018-08-28T00:59:07.408Z,15.97
2018-08-28T01:00:07.458Z,16.08
2018-08-28T01:01:07.391Z,15.97
2018-08-28T01:02:07.397Z,15.97
2018-08-28T01:03:07.348Z,16.01
2018-08-28T01:04:07.421Z,16.00
2018-08-28T01:05:07.393Z,15.90
2018-08-28T01:06:07.317Z,15.92
2018-08-28T01:07:07.302Z,15.97
2018-08-28T01:08:07.296Z,15.95
2018-08-28T01:09:07.276Z,16.02
2018-08-28T01:10:07.370Z,16.01
2018-08-28T01:11:07.262Z,15.92
2018-08-28T01:12:07.250Z,16.00
2018-08-28T01:13:07.232Z,15.91
2018-08-28T01:14:07.259Z,15.94
2018-08-28T01:15:07.216Z,16.04
2018-08-28T01:16:07.258Z,15.97
2018-08-28T01:17:07.315Z,15.97
2018-08-28T01:18:07.177Z,15.94
2018-08-28T01:19:07.191Z,15.98
2018-08-28T01:20:07.198Z,16.00
2018-08-28T01:21:07.174Z,16.00
2018-08-28T01:22:07.132Z,15.92
2018-08-28T01:23:07.138Z,16.01
2018-08-28T01:24:07.167Z,16.01
2018-08-28T01:25:07.137Z,15.95
2018-08-28T01:26:07.094Z,15.95
2018-08-28T01:27:07.092Z,15.94
2018-08-28T01:28:07.064Z,15.94
2018-08-28T01:29:07.099Z,16.02
2018-08-28T01:30:07.099Z,15.94
2018-08-28T01:31:07.030Z,15.90
2018-08-28T01:32:07.021Z,15.90
2018-08-28T01:33:07.016Z,15.91
2018-08-28T01:34:07.000Z,15.92
2018-08-28T01:35:07.000Z,15.88
2018-08-28T01:36:06.989Z,15.79
2018-08-28T01:37:07.059Z,15.97
2018-08-28T01:38:07.007Z,15.83
2018-08-28T01:39:06.939Z,15.90
2018-08-28T01:40:06.974Z,15.86
2018-08-28T01:41:06.951Z,15.88
2018-08-28T01:42:06.910Z,15.84
2018-08-28T01:43:06.957Z,15.91
2018-08-28T01:44:06.883Z,15.88
2018-08-28T01:45:06.870Z,15.95
2018-08-28T01:46:06.875Z,15.84
2018-08-28T01:47:06.860Z,15.97
2018-08-28T01:48:06.894Z,15.94
2018-08-28T01:49:06.837Z,15.91
2018-08-28T01:50:06.815Z,15.92
2018-08-28T01:51:06.884Z,15.86
2018-08-28T01:52:06.799Z,15.91
2018-08-28T01:53:06.794Z,15.80
2018-08-28T01:54:06.781Z,15.84
2018-08-28T01:55:06.759Z,15.92
2018-08-28T01:56:06.796Z,15.86
2018-08-28T01:57:06.787Z,15.91
2018-08-28T01:58:06.726Z,15.90
2018-08-28T01:59:06.731Z,15.90
2018-08-28T02:00:06.815Z,15.92
2018-08-28T02:01:06.771Z,15.83
2018-08-28T02:02:06.706Z,15.92
2018-08-28T02:03:06.679Z,15.88
2018-08-28T02:04:06.696Z,15.82
2018-08-28T02:05:06.660Z,15.88
2018-08-28T02:06:06.634Z,15.86
2018-08-28T02:07:06.648Z,15.83
2018-08-28T02:08:06.614Z,15.88
2018-08-28T02:09:06.627Z,15.75
2018-08-28T02:10:06.588Z,15.82
2018-08-28T02:11:06.645Z,15.79
2018-08-28T02:12:06.594Z,15.83
2018-08-28T02:13:06.611Z,15.79
2018-08-28T02:14:06.547Z,15.83
2018-08-28T02:15:06.594Z,15.75
2018-08-28T02:16:06.527Z,15.70
2018-08-28T02:17:06.528Z,15.75
2018-08-28T02:18:06.500Z,15.83
2018-08-28T02:19:06.518Z,15.88
2018-08-28T02:20:06.524Z,15.86
2018-08-28T02:21:06.469Z,15.77
2018-08-28T02:22:06.453Z,15.94
2018-08-28T02:23:06.486Z,15.83
2018-08-28T02:24:06.485Z,15.77
2018-08-28T02:25:06.426Z,15.91
2018-08-28T02:26:06.408Z,15.80
2018-08-28T02:27:06.447Z,15.95
2018-08-28T02:28:06.402Z,15.92
2018-08-28T02:29:06.463Z,15.92
2018-08-28T02:30:06.408Z,15.94
2018-08-28T02:31:06.415Z,15.86
2018-08-28T02:32:06.372Z,15.90
2018-08-28T02:33:06.335Z,15.80
2018-08-28T02:34:06.319Z,15.90
2018-08-28T02:35:06.341Z,15.94
2018-08-28T02:36:06.345Z,15.94
2018-08-28T02:37:06.299Z,15.92
2018-08-28T02:38:06.273Z,15.95
2018-08-28T02:39:06.287Z,15.88
2018-08-28T02:40:06.253Z,15.94
2018-08-28T02:41:06.281Z,15.94
2018-08-28T02:42:06.228Z,15.86
2018-08-28T02:43:06.244Z,15.91
2018-08-28T02:44:06.226Z,15.91
2018-08-28T02:45:06.200Z,15.88
2018-08-28T02:46:06.187Z,15.84
2018-08-28T02:47:06.178Z,15.88
2018-08-28T02:48:06.264Z,15.94
2018-08-28T02:49:06.150Z,15.90
2018-08-28T02:50:06.143Z,15.83
2018-08-28T02:51:06.125Z,15.83
2018-08-28T02:52:06.148Z,15.82
2018-08-28T02:53:06.134Z,15.84
2018-08-28T02:54:06.109Z,15.83
2018-08-28T02:55:06.085Z,15.88
2018-08-28T02:56:06.112Z,15.84
2018-08-28T02:57:06.087Z,15.83
2018-08-28T02:58:06.049Z,15.70
2018-08-28T02:59:06.041Z,15.75
2018-08-28T03:00:06.069Z,15.75
2018-08-28T03:01:06.016Z,15.72
2018-08-28T03:02:06.109Z,15.82
2018-08-28T03:03:06.136Z,15.80
2018-08-28T03:04:05.983Z,15.90
2018-08-28T03:05:05.988Z,15.88
2018-08-28T03:06:05.976Z,15.88
2018-08-28T03:07:05.965Z,15.86
2018-08-28T03:08:05.977Z,15.84
2018-08-28T03:09:05.967Z,15.86
2018-08-28T03:10:05.944Z,15.84
2018-08-28T03:11:05.902Z,15.88
2018-08-28T03:12:05.941Z,15.88
2018-08-28T03:13:05.907Z,15.91
2018-08-28T03:14:05.869Z,15.91
2018-08-28T03:15:05.914Z,15.90
2018-08-28T03:16:05.919Z,15.91
2018-08-28T03:17:05.886Z,15.88
2018-08-28T03:18:05.878Z,15.82
2018-08-28T03:19:05.879Z,15.84
2018-08-28T03:20:05.857Z,15.79
2018-08-28T03:21:05.790Z,15.84
2018-08-28T03:22:05.779Z,15.80
2018-08-28T03:23:05.767Z,15.80
2018-08-28T03:24:05.835Z,15.80
2018-08-28T03:25:05.767Z,15.77
2018-08-28T03:26:05.733Z,15.82
2018-08-28T03:27:05.749Z,15.79
2018-08-28T03:28:05.747Z,15.83
2018-08-28T03:29:05.783Z,15.83
2018-08-28T03:30:05.702Z,15.82
2018-08-28T03:31:20.271Z,15.80
2018-08-28T03:32:05.682Z,15.88
2018-08-28T03:33:05.678Z,15.90
2018-08-28T03:34:05.686Z,15.88
2018-08-28T03:35:05.650Z,15.84
2018-08-28T03:36:05.655Z,15.80
2018-08-28T03:37:05.612Z,15.70
2018-08-28T03:38:05.617Z,15.82
2018-08-28T03:39:05.592Z,15.83
2018-08-28T03:40:05.576Z,15.76
2018-08-28T03:41:05.587Z,15.73
2018-08-28T03:42:05.554Z,15.68
2018-08-28T03:43:05.568Z,15.72
2018-08-28T03:44:05.532Z,15.76
2018-08-28T03:45:05.589Z,15.68
2018-08-28T03:46:05.544Z,15.80
2018-08-28T03:47:05.538Z,15.77
2018-08-28T03:48:05.487Z,15.73
2018-08-28T03:49:05.479Z,15.76
2018-08-28T03:50:05.470Z,15.75
2018-08-28T03:51:05.457Z,15.73
2018-08-28T03:52:05.445Z,15.70
2018-08-28T03:53:05.464Z,15.68
2018-08-28T03:54:05.459Z,15.79
2018-08-28T03:55:05.412Z,15.70
2018-08-28T03:56:05.419Z,15.72
2018-08-28T03:57:05.427Z,15.65
2018-08-28T03:58:05.401Z,15.68
2018-08-28T03:59:05.381Z,15.72
2018-08-28T04:00:05.356Z,15.75
2018-08-28T04:01:05.344Z,15.65
2018-08-28T04:02:05.341Z,15.77
2018-08-28T04:03:05.323Z,15.76
2018-08-28T04:04:05.320Z,15.75
2018-08-28T04:05:05.313Z,15.68
2018-08-28T04:06:05.344Z,15.80
2018-08-28T04:07:05.322Z,15.67
2018-08-28T04:08:05.266Z,15.72
2018-08-28T04:09:05.252Z,15.75
2018-08-28T04:10:05.325Z,15.76
2018-08-28T04:11:05.245Z,15.70
2018-08-28T04:12:05.252Z,15.76
2018-08-28T04:13:05.206Z,15.79
2018-08-28T04:14:05.198Z,15.76
2018-08-28T04:15:05.212Z,15.75
2018-08-28T04:16:05.178Z,15.76
2018-08-28T04:17:05.252Z,15.73
2018-08-28T04:18:05.166Z,15.67
2018-08-28T04:19:05.140Z,15.65
2018-08-28T04:20:05.204Z,15.62
2018-08-28T04:21:05.116Z,15.70
2018-08-28T04:22:05.200Z,15.67
2018-08-28T04:23:05.138Z,15.67
2018-08-28T04:24:05.082Z,15.70
2018-08-28T04:25:05.071Z,15.77
2018-08-28T04:26:05.101Z,15.75
2018-08-28T04:27:05.070Z,15.72
2018-08-28T04:28:05.066Z,15.75
2018-08-28T04:29:05.069Z,15.70
2018-08-28T04:30:05.035Z,15.72
2018-08-28T04:31:12.617Z,15.70
2018-08-28T04:32:04.993Z,15.59
2018-08-28T04:33:05.029Z,15.57
2018-08-28T04:34:04.974Z,15.64
2018-08-28T04:35:04.960Z,15.62
2018-08-28T04:36:04.980Z,15.65
2018-08-28T04:37:04.958Z,15.68
2018-08-28T04:38:04.932Z,15.68
2018-08-28T04:39:04.917Z,15.70
2018-08-28T04:40:04.903Z,15.70
2018-08-28T04:41:04.935Z,15.64
2018-08-28T04:42:04.892Z,15.67
2018-08-28T04:43:04.893Z,15.67
2018-08-28T04:44:04.900Z,15.76
2018-08-28T04:45:04.856Z,15.65
2018-08-28T04:46:04.835Z,15.59
2018-08-28T04:47:04.882Z,15.67
2018-08-28T04:48:04.849Z,15.64
2018-08-28T04:49:04.820Z,15.61
2018-08-28T04:50:04.801Z,15.65
2018-08-28T04:51:04.780Z,15.67
2018-08-28T04:52:04.777Z,15.59
2018-08-28T04:53:04.777Z,15.65
2018-08-28T04:54:04.807Z,15.59
2018-08-28T04:55:04.804Z,15.57
2018-08-28T04:56:04.767Z,15.52
2018-08-28T04:57:04.851Z,15.52
2018-08-28T04:58:04.700Z,15.62
2018-08-28T04:59:04.704Z,15.57
2018-08-28T05:00:04.723Z,15.55
2018-08-28T05:01:04.684Z,15.64
2018-08-28T05:02:04.747Z,15.59
2018-08-28T05:03:04.644Z,15.68
2018-08-28T05:04:04.653Z,15.67
2018-08-28T05:05:04.658Z,15.70
2018-08-28T05:06:04.635Z,15.62
2018-08-28T05:07:04.634Z,15.70
2018-08-28T05:08:04.622Z,15.62
2018-08-28T05:09:04.579Z,15.65
2018-08-28T05:10:04.580Z,15.57
2018-08-28T05:11:04.557Z,15.70
2018-08-28T05:12:04.590Z,15.67
2018-08-28T05:13:04.540Z,15.67
2018-08-28T05:14:04.678Z,15.65
2018-08-28T05:15:04.547Z,15.62
2018-08-28T05:16:04.526Z,15.65
2018-08-28T05:17:04.533Z,15.70
2018-08-28T05:18:04.492Z,15.61
2018-08-28T05:19:04.467Z,15.72
2018-08-28T05:20:04.452Z,15.73
2018-08-28T05:21:04.443Z,15.64
2018-08-28T05:22:04.455Z,15.76
2018-08-28T05:23:04.432Z,15.70
2018-08-28T05:24:04.420Z,15.75
2018-08-28T05:25:04.440Z,15.73
2018-08-28T05:26:04.413Z,15.68
2018-08-28T05:27:04.381Z,15.76
2018-08-28T05:28:04.496Z,15.79
2018-08-28T05:29:04.599Z,15.75
2018-08-28T05:30:04.367Z,15.88
2018-08-28T05:31:04.330Z,15.84
2018-08-28T05:32:04.324Z,15.88
2018-08-28T05:33:04.361Z,15.92
2018-08-28T05:34:04.383Z,15.83
2018-08-28T05:35:04.286Z,15.91
2018-08-28T05:36:04.290Z,15.92
2018-08-28T05:37:04.290Z,15.80
2018-08-28T05:38:04.298Z,15.82
2018-08-28T05:39:04.280Z,15.95
2018-08-28T05:40:04.229Z,15.84
2018-08-28T05:41:04.281Z,15.90
2018-08-28T05:42:04.266Z,15.92
2018-08-28T05:43:04.195Z,15.80
2018-08-28T05:44:04.185Z,15.75
2018-08-28T05:45:04.186Z,15.82
2018-08-28T05:46:04.201Z,15.80
2018-08-28T05:47:04.161Z,15.88
2018-08-28T05:48:04.163Z,15.82
2018-08-28T05:49:04.136Z,15.84
2018-08-28T05:50:04.116Z,15.86
2018-08-28T05:51:04.149Z,15.91
2018-08-28T05:52:04.102Z,15.91
2018-08-28T05:53:04.090Z,15.94
2018-08-28T05:54:04.115Z,15.92
2018-08-28T05:55:04.106Z,15.86
2018-08-28T05:56:04.096Z,15.90
2018-08-28T05:57:04.056Z,15.92
2018-08-28T05:58:04.026Z,15.92
2018-08-28T05:59:04.035Z,15.94
2018-08-28T06:00:04.070Z,15.95
2018-08-28T06:01:04.029Z,16.01
2018-08-28T06:02:03.989Z,15.90
2018-08-28T06:03:04.064Z,15.90
2018-08-28T06:04:03.961Z,15.88
2018-08-28T06:05:03.968Z,16.01
2018-08-28T06:06:03.969Z,15.83
2018-08-28T06:07:03.924Z,15.94
2018-08-28T06:08:03.930Z,15.90
2018-08-28T06:09:03.925Z,15.92
2018-08-28T06:10:03.894Z,16.00
2018-08-28T06:11:03.893Z,15.95
2018-08-28T06:12:04.046Z,15.91
2018-08-28T06:13:03.974Z,16.02
2018-08-28T06:14:03.885Z,16.01
2018-08-28T06:15:03.837Z,15.98
2018-08-28T06:16:03.853Z,16.02
2018-08-28T06:17:03.908Z,16.04
2018-08-28T06:18:03.812Z,15.95
2018-08-28T06:19:03.789Z,16.01
2018-08-28T06:20:03.775Z,16.02
2018-08-28T06:21:03.769Z,16.08
2018-08-28T06:22:03.763Z,16.13
2018-08-28T06:23:03.928Z,16.15
2018-08-28T06:24:03.780Z,16.16
2018-08-28T06:25:03.745Z,16.26
2018-08-28T06:26:03.713Z,16.23
2018-08-28T06:27:03.772Z,16.13
2018-08-28T06:28:03.693Z,16.28
2018-08-28T06:29:03.756Z,16.23
2018-08-28T06:30:03.714Z,16.20
2018-08-28T06:31:03.689Z,16.21
2018-08-28T06:32:03.661Z,16.21
2018-08-28T06:33:03.632Z,16.13
2018-08-28T06:34:03.730Z,16.16
2018-08-28T06:35:03.742Z,16.15
2018-08-28T06:36:03.600Z,16.17
2018-08-28T06:37:03.586Z,16.12
2018-08-28T06:38:03.582Z,16.13
2018-08-28T06:39:03.603Z,16.24
2018-08-28T06:40:03.555Z,16.13
2018-08-28T06:41:03.623Z,16.23
2018-08-28T06:42:03.540Z,16.26
2018-08-28T06:43:03.531Z,16.29
2018-08-28T06:44:03.817Z,16.36
2018-08-28T06:45:03.496Z,16.38
2018-08-28T06:46:03.522Z,16.32
2018-08-28T06:47:03.556Z,16.36
2018-08-28T06:48:03.489Z,16.38
2018-08-28T06:49:03.452Z,16.43
2018-08-28T06:50:03.499Z,16.36
2018-08-28T06:51:03.497Z,16.39
2018-08-28T06:52:03.423Z,16.39
2018-08-28T06:53:03.408Z,16.46
2018-08-28T06:54:03.449Z,16.33
2018-08-28T06:55:03.397Z,16.39
2018-08-28T06:56:03.406Z,16.43
2018-08-28T06:57:03.364Z,16.35
2018-08-28T06:58:03.403Z,16.26
2018-08-28T06:59:03.374Z,16.39
2018-08-28T07:00:03.344Z,16.33
2018-08-28T07:01:03.324Z,16.35
2018-08-28T07:02:03.308Z,16.38
2018-08-28T07:03:03.322Z,16.43
2018-08-28T07:04:03.368Z,16.43
2018-08-28T07:05:03.283Z,16.43
2018-08-28T07:06:03.290Z,16.51
2018-08-28T07:07:03.258Z,16.51
2018-08-28T07:08:03.307Z,16.42
2018-08-28T07:09:03.273Z,16.49
2018-08-28T07:10:03.265Z,16.57
2018-08-28T07:11:03.201Z,16.47
2018-08-28T07:12:03.190Z,16.50
2018-08-28T07:13:03.222Z,16.49
2018-08-28T07:14:03.223Z,16.50
2018-08-28T07:15:03.159Z,16.43
2018-08-28T07:16:03.169Z,16.49
2018-08-28T07:17:03.136Z,16.51
2018-08-28T07:18:03.161Z,16.46
2018-08-28T07:19:03.113Z,16.49
2018-08-28T07:20:03.179Z,16.49
2018-08-28T07:21:03.108Z,16.53
2018-08-28T07:22:03.080Z,16.42
2018-08-28T07:23:03.072Z,16.50
2018-08-28T07:24:03.057Z,16.54
2018-08-28T07:25:03.043Z,16.61
2018-08-28T07:26:03.145Z,16.60
2018-08-28T07:27:03.041Z,16.61
2018-08-28T07:28:03.008Z,16.66
2018-08-28T07:29:02.999Z,16.68
2018-08-28T07:30:03.007Z,16.60
2018-08-28T07:31:02.984Z,16.64
2018-08-28T07:32:02.988Z,16.68
2018-08-28T07:33:02.986Z,16.72
2018-08-28T07:34:02.945Z,16.79
2018-08-28T07:35:02.976Z,16.78
2018-08-28T07:36:02.957Z,16.83
2018-08-28T07:37:02.924Z,16.86
2018-08-28T07:38:02.954Z,16.87
2018-08-28T07:39:02.893Z,16.97
2018-08-28T07:40:02.900Z,16.96
2018-08-28T07:41:02.882Z,16.94
2018-08-28T07:42:02.878Z,16.96
2018-08-28T07:43:02.853Z,16.97
2018-08-28T07:44:02.845Z,17.05
2018-08-28T07:45:02.847Z,17.06
2018-08-28T07:46:02.810Z,17.01
2018-08-28T07:47:02.796Z,16.97
2018-08-28T07:48:02.803Z,16.93
2018-08-28T07:49:02.799Z,17.05
2018-08-28T07:50:02.775Z,17.06
2018-08-28T07:51:02.750Z,17.08
2018-08-28T07:52:02.767Z,17.09
2018-08-28T07:53:02.761Z,17.11
2018-08-28T07:54:02.770Z,17.11
2018-08-28T07:55:02.704Z,17.06
2018-08-28T07:56:02.708Z,17.20
2018-08-28T07:57:02.681Z,17.19
2018-08-28T07:58:02.675Z,17.15
2018-08-28T07:59:02.719Z,17.19
2018-08-28T08:00:02.659Z,17.24
2018-08-28T08:01:02.641Z,17.23
2018-08-28T08:02:02.639Z,17.27
2018-08-28T08:03:02.615Z,17.22
2018-08-28T08:04:02.604Z,17.23
2018-08-28T08:05:02.608Z,17.27
2018-08-28T08:06:02.601Z,17.31
2018-08-28T08:07:02.584Z,17.39
2018-08-28T08:08:02.566Z,17.34
2018-08-28T08:09:02.552Z,17.38
2018-08-28T08:10:02.549Z,17.34
2018-08-28T08:11:02.527Z,17.41
2018-08-28T08:12:02.520Z,17.42
2018-08-28T08:13:02.524Z,17.39
2018-08-28T08:14:02.501Z,17.36
2018-08-28T08:15:02.487Z,17.54
2018-08-28T08:16:02.508Z,17.59
2018-08-28T08:17:02.465Z,17.63
2018-08-28T08:18:02.534Z,17.56
2018-08-28T08:19:02.452Z,17.68
2018-08-28T08:20:02.425Z,17.68
2018-08-28T08:21:02.452Z,17.72
2018-08-28T08:22:02.421Z,17.79
2018-08-28T08:23:02.389Z,17.79
2018-08-28T08:24:02.382Z,17.80
2018-08-28T08:25:02.384Z,17.83
2018-08-28T08:26:02.370Z,17.90
2018-08-28T08:27:02.393Z,18.00
2018-08-28T08:28:02.412Z,18.07
2018-08-28T08:29:02.359Z,18.01
2018-08-28T08:30:02.333Z,18.00
2018-08-28T08:31:02.308Z,18.05
2018-08-28T08:32:02.309Z,18.13
2018-08-28T08:33:02.280Z,18.15
2018-08-28T08:34:02.282Z,18.03
2018-08-28T08:35:02.256Z,18.11
2018-08-28T08:36:02.276Z,18.10
2018-08-28T08:37:02.255Z,18.28
2018-08-28T08:38:02.220Z,18.22
2018-08-28T08:39:02.207Z,18.26
2018-08-28T08:40:02.197Z,18.34
2018-08-28T08:41:02.188Z,18.22
2018-08-28T08:42:02.263Z,18.29
2018-08-28T08:43:02.181Z,18.35
2018-08-28T08:44:02.177Z,18.35
2018-08-28T08:45:02.163Z,18.44
2018-08-28T08:46:02.132Z,18.49
2018-08-28T08:47:02.118Z,18.35
2018-08-28T08:48:02.111Z,18.47
2018-08-28T08:49:02.113Z,18.47
2018-08-28T08:50:02.114Z,18.56
2018-08-28T08:51:02.078Z,18.62
2018-08-28T08:52:02.069Z,18.66
2018-08-28T08:53:02.050Z,18.62
2018-08-28T08:54:02.039Z,18.58
2018-08-28T08:55:02.199Z,18.56
2018-08-28T08:56:02.022Z,18.55
2018-08-28T08:57:02.008Z,18.65
2018-08-28T08:58:01.998Z,18.60
2018-08-28T08:59:01.986Z,18.63
2018-08-28T09:00:01.975Z,18.58
2018-08-28T09:01:01.994Z,18.59
2018-08-28T09:02:01.958Z,18.65
2018-08-28T09:03:01.950Z,18.58
2018-08-28T09:04:01.928Z,18.56
2018-08-28T09:05:01.930Z,18.71
2018-08-28T09:06:01.980Z,18.73
2018-08-28T09:07:01.895Z,18.78
2018-08-28T09:08:01.885Z,18.77
2018-08-28T09:09:01.872Z,18.86
2018-08-28T09:10:01.875Z,18.90
2018-08-28T09:11:01.850Z,18.92
2018-08-28T09:12:01.852Z,18.93
2018-08-28T09:13:01.833Z,19.00
2018-08-28T09:14:01.848Z,18.95
2018-08-28T09:15:01.836Z,18.93
2018-08-28T09:16:01.801Z,18.84
2018-08-28T09:17:01.780Z,18.86
2018-08-28T09:18:01.783Z,18.95
2018-08-28T09:19:01.762Z,18.95
2018-08-28T09:20:01.768Z,18.89
2018-08-28T09:21:01.745Z,18.92
2018-08-28T09:22:01.741Z,18.95
2018-08-28T09:23:01.745Z,18.90
2018-08-28T09:24:01.727Z,18.90
2018-08-28T09:25:01.695Z,18.90
2018-08-28T09:26:01.681Z,18.99
2018-08-28T09:27:01.694Z,19.02
2018-08-28T09:28:01.663Z,19.02
2018-08-28T09:29:01.683Z,19.08
2018-08-28T09:30:01.663Z,19.02
2018-08-28T09:31:01.625Z,19.14
2018-08-28T09:32:01.617Z,19.11
2018-08-28T09:33:01.613Z,19.07
2018-08-28T09:34:01.597Z,18.98
2018-08-28T09:35:01.584Z,19.00
2018-08-28T09:36:01.592Z,18.90
2018-08-28T09:37:01.558Z,19.00
2018-08-28T09:38:01.578Z,18.98
2018-08-28T09:39:01.537Z,19.07
2018-08-28T09:40:01.529Z,19.02
2018-08-28T09:41:01.516Z,19.15
2018-08-28T09:42:01.501Z,19.14
2018-08-28T09:43:01.490Z,19.19
2018-08-28T09:44:01.523Z,19.16
2018-08-28T09:45:01.510Z,19.22
2018-08-28T09:46:01.455Z,19.31
2018-08-28T09:47:01.450Z,19.24
2018-08-28T09:48:01.515Z,19.34
2018-08-28T09:49:01.424Z,19.39
2018-08-28T09:50:01.476Z,19.29
2018-08-28T09:51:01.465Z,19.34
2018-08-28T09:52:01.389Z,19.30
2018-08-28T09:53:01.378Z,19.37
2018-08-28T09:54:01.369Z,19.27
2018-08-28T09:55:01.360Z,19.33
2018-08-28T09:56:01.387Z,19.29
2018-08-28T09:57:01.335Z,19.36
2018-08-28T09:58:01.332Z,19.30
2018-08-28T09:59:01.314Z,19.41
2018-08-28T10:00:01.305Z,19.51
2018-08-28T10:01:01.290Z,19.44
2018-08-28T10:02:01.316Z,19.41
2018-08-28T10:03:01.268Z,19.33
2018-08-28T10:04:01.257Z,19.37
2018-08-28T10:05:01.246Z,19.37
2018-08-28T10:06:01.237Z,19.37
2018-08-28T10:07:01.222Z,19.37
2018-08-28T10:08:01.253Z,19.44
2018-08-28T10:09:01.203Z,19.47
2018-08-28T10:10:01.188Z,19.44
2018-08-28T10:11:01.261Z,19.40
2018-08-28T10:12:01.168Z,19.54
2018-08-28T10:13:01.156Z,19.54
2018-08-28T10:14:01.173Z,19.52
2018-08-28T10:15:01.134Z,19.55
2018-08-28T10:16:01.140Z,19.45
2018-08-28T10:17:01.124Z,19.49
2018-08-28T10:18:01.097Z,19.41
2018-08-28T10:19:01.090Z,19.36
2018-08-28T10:20:01.093Z,19.47
2018-08-28T10:21:01.095Z,19.47
2018-08-28T10:22:01.056Z,19.56
2018-08-28T10:23:01.127Z,19.55
2018-08-28T10:24:01.031Z,19.51
2018-08-28T10:25:01.023Z,19.54
2018-08-28T10:26:01.028Z,19.51
2018-08-28T10:27:01.023Z,19.48
2018-08-28T10:28:00.991Z,19.51
2018-08-28T10:29:00.982Z,19.47
2018-08-28T10:30:01.062Z,19.59
2018-08-28T10:31:00.972Z,19.44
2018-08-28T10:32:00.958Z,19.59
2018-08-28T10:33:00.965Z,19.45
2018-08-28T10:34:00.920Z,19.48
2018-08-28T10:35:00.910Z,19.47
2018-08-28T10:36:00.898Z,19.41
2018-08-28T10:37:00.891Z,19.48
2018-08-28T10:38:00.938Z,19.48
2018-08-28T10:39:00.869Z,19.45
2018-08-28T10:40:00.876Z,19.48
2018-08-28T10:41:00.884Z,19.59
2018-08-28T10:42:00.830Z,19.58
2018-08-28T10:43:00.838Z,19.59
2018-08-28T10:44:00.827Z,19.66
2018-08-28T10:45:00.804Z,19.59
2018-08-28T10:46:00.860Z,19.59
2018-08-28T10:47:00.854Z,19.73
2018-08-28T10:48:00.763Z,19.71
2018-08-28T10:49:00.770Z,19.69
2018-08-28T10:50:00.754Z,19.82
2018-08-28T10:51:00.733Z,19.81
2018-08-28T10:52:00.752Z,19.85
2018-08-28T10:53:00.815Z,19.91
2018-08-28T10:54:00.698Z,19.95
2018-08-28T10:55:00.700Z,20.04
2018-08-28T10:56:00.678Z,20.09
2018-08-28T10:57:00.665Z,20.16
2018-08-28T10:58:00.678Z,20.10
2018-08-28T10:59:00.650Z,20.21
2018-08-28T11:00:00.632Z,20.16
2018-08-28T11:01:00.633Z,20.19
2018-08-28T11:02:00.608Z,20.24
2018-08-28T11:03:00.598Z,20.31
2018-08-28T11:04:00.589Z,20.47
2018-08-28T11:05:00.597Z,20.62
2018-08-28T11:06:00.567Z,20.67
2018-08-28T11:07:00.569Z,20.69
2018-08-28T11:08:00.544Z,21.15
2018-08-28T11:09:00.530Z,21.40
2018-08-28T11:10:00.518Z,21.69
2018-08-28T11:11:00.549Z,21.95
2018-08-28T11:12:00.499Z,22.22
2018-08-28T11:13:00.504Z,22.30
2018-08-28T11:14:00.480Z,22.36
2018-08-28T11:15:00.465Z,22.55
2018-08-28T11:16:00.475Z,22.73
2018-08-28T11:17:00.448Z,22.72
2018-08-28T11:18:00.464Z,22.43
2018-08-28T11:19:00.440Z,22.43
2018-08-28T11:20:00.419Z,22.43
2018-08-28T11:21:00.396Z,22.55
2018-08-28T11:22:00.386Z,22.44
2018-08-28T11:23:00.528Z,22.33
2018-08-28T11:24:00.361Z,22.18
2018-08-28T11:25:00.372Z,22.15
2018-08-28T11:26:00.341Z,21.99
2018-08-28T11:27:00.332Z,21.77
2018-08-28T11:28:00.353Z,21.82
2018-08-28T11:29:00.357Z,21.57
2018-08-28T11:30:00.352Z,21.36
2018-08-28T11:31:00.302Z,21.35
2018-08-28T11:32:00.275Z,21.25
2018-08-28T11:33:00.280Z,21.20
2018-08-28T11:34:00.262Z,21.36
2018-08-28T11:35:00.241Z,21.37
2018-08-28T11:36:00.244Z,21.35
2018-08-28T11:37:00.239Z,21.22
2018-08-28T11:38:00.231Z,21.37
2018-08-28T11:39:00.194Z,21.27
2018-08-28T11:40:00.183Z,21.33
2018-08-28T11:41:00.180Z,21.20
2018-08-28T11:42:00.157Z,21.20
2018-08-28T11:43:00.164Z,20.96
2018-08-28T11:44:00.136Z,21.05
2018-08-28T11:45:00.124Z,21.00
2018-08-28T11:46:00.141Z,21.00
2018-08-28T11:47:00.107Z,21.25
2018-08-28T11:48:00.090Z,21.39
2018-08-28T11:49:00.098Z,21.83
2018-08-28T11:50:00.073Z,21.92
2018-08-28T11:51:00.054Z,21.95
2018-08-28T11:52:00.096Z,22.00
2018-08-28T11:53:00.144Z,21.76
2018-08-28T11:54:00.037Z,21.57
2018-08-28T11:55:00.030Z,21.62
2018-08-28T11:56:00.010Z,21.79
2018-08-28T11:57:00.036Z,21.85
2018-08-28T11:57:59.980Z,22.08
2018-08-28T11:58:59.982Z,22.11
2018-08-28T11:59:59.967Z,22.26
2018-08-28T12:00:59.958Z,22.36
2018-08-28T12:01:59.954Z,22.70
2018-08-28T12:02:59.937Z,22.81
2018-08-28T12:03:59.914Z,22.96
2018-08-28T12:04:59.992Z,23.05
2018-08-28T12:05:59.911Z,23.13
2018-08-28T12:06:59.942Z,23.18
2018-08-28T12:07:59.877Z,23.31
2018-08-28T12:08:59.876Z,23.28
2018-08-28T12:09:59.874Z,23.18
2018-08-28T12:10:59.833Z,23.32
2018-08-28T12:11:59.820Z,23.37
2018-08-28T12:12:59.868Z,23.25
2018-08-28T12:13:59.800Z,23.37
2018-08-28T12:14:59.808Z,23.34
2018-08-28T12:15:59.774Z,23.40
2018-08-28T12:16:59.765Z,23.55
2018-08-28T12:17:59.753Z,23.48
2018-08-28T12:18:59.759Z,23.47
2018-08-28T12:19:59.765Z,23.54
2018-08-28T12:20:59.889Z,23.58
2018-08-28T12:21:59.708Z,23.66
2018-08-28T12:22:59.699Z,23.66
2018-08-28T12:23:59.684Z,23.62
2018-08-28T12:24:59.694Z,23.54
2018-08-28T12:25:59.665Z,23.51
2018-08-28T12:26:59.663Z,23.63
2018-08-28T12:27:59.670Z,23.54
2018-08-28T12:28:59.632Z,23.51
2018-08-28T12:29:59.618Z,23.54
2018-08-28T12:30:59.624Z,23.69
2018-08-28T12:31:59.597Z,23.74
2018-08-28T12:32:59.585Z,23.74
2018-08-28T12:33:59.591Z,23.77
2018-08-28T12:34:59.565Z,23.86
2018-08-28T12:35:59.553Z,23.69
2018-08-28T12:36:59.578Z,23.51
2018-08-28T12:37:59.528Z,23.34
2018-08-28T12:38:59.517Z,23.10
2018-08-28T12:39:59.539Z,22.99
2018-08-28T12:40:59.494Z,22.99
2018-08-28T12:41:59.485Z,22.99
2018-08-28T12:42:59.480Z,22.85
2018-08-28T12:43:59.516Z,22.98
2018-08-28T12:44:59.449Z,23.13
2018-08-28T12:45:59.468Z,23.06
2018-08-28T12:46:59.463Z,23.09
2018-08-28T12:47:59.430Z,22.94
2018-08-28T12:48:59.404Z,22.93
2018-08-28T12:49:59.394Z,22.85
2018-08-28T12:50:59.384Z,22.85
2018-08-28T12:51:59.418Z,22.81